createdAt,value
2017-08-31T00:00:39.433Z,17.16
2017-08-31T00:03:07.434Z,17.06
2017-08-31T00:05:35.201Z,17.03
2017-08-31T00:08:02.910Z,16.95
2017-08-31T00:10:30.695Z,16.72
2017-08-31T00:12:58.445Z,16.66
2017-08-31T00:15:26.216Z,16.80
2017-08-31T00:17:54.022Z,16.96
2017-08-31T00:20:21.802Z,16.88
2017-08-31T00:22:49.492Z,16.93
2017-08-31T00:25:17.313Z,16.81
2017-08-31T00:27:45.113Z,16.83
2017-08-31T00:30:13.741Z,16.93
2017-08-31T00:32:41.487Z,16.81
2017-08-31T00:35:09.254Z,16.82
2017-08-31T00:37:37.083Z,16.98
2017-08-31T00:40:04.849Z,16.82
2017-08-31T00:42:32.665Z,16.72
2017-08-31T00:45:00.433Z,16.66
2017-08-31T00:47:28.223Z,16.71
2017-08-31T00:49:56.158Z,16.70
2017-08-31T00:52:23.952Z,16.76
2017-08-31T00:54:51.739Z,16.72
2017-08-31T00:57:19.490Z,16.60
2017-08-31T00:59:47.197Z,16.38
2017-08-31T01:02:15.939Z,16.36
2017-08-31T01:04:43.721Z,16.59
2017-08-31T01:07:11.475Z,16.75
2017-08-31T01:09:39.240Z,16.58
2017-08-31T01:12:07.022Z,16.50
2017-08-31T01:14:34.711Z,16.55
2017-08-31T01:17:02.492Z,16.56
2017-08-31T01:19:30.254Z,16.53
2017-08-31T01:21:57.980Z,16.56
2017-08-31T01:24:25.815Z,16.43
2017-08-31T01:26:53.662Z,16.44
2017-08-31T01:29:21.441Z,16.36
2017-08-31T01:31:50.045Z,16.24
2017-08-31T01:34:17.852Z,16.32
2017-08-31T01:36:45.584Z,16.29
2017-08-31T01:39:13.385Z,16.25
2017-08-31T01:41:41.173Z,16.30
2017-08-31T01:44:08.915Z,16.15
2017-08-31T01:46:36.784Z,16.23
2017-08-31T01:49:04.773Z,16.24
2017-08-31T01:51:32.571Z,16.26
2017-08-31T01:54:01.151Z,16.27
2017-08-31T01:56:28.884Z,16.19
2017-08-31T01:58:56.688Z,16.20
2017-08-31T02:01:24.427Z,16.09
2017-08-31T02:03:52.143Z,16.11
2017-08-31T02:06:19.956Z,16.10
2017-08-31T02:08:47.721Z,16.07
2017-08-31T02:11:15.456Z,16.02
2017-08-31T02:13:43.242Z,16.10
2017-08-31T02:16:11.027Z,16.13
2017-08-31T02:18:38.717Z,15.99
2017-08-31T02:21:06.501Z,16.01
2017-08-31T02:23:34.234Z,16.06
2017-08-31T02:26:02.033Z,16.07
2017-08-31T02:28:29.733Z,15.95
2017-08-31T02:30:57.518Z,15.92
2017-08-31T02:33:25.304Z,16.09
2017-08-31T02:35:53.075Z,16.07
2017-08-31T02:38:20.779Z,16.05
2017-08-31T02:40:48.486Z,16.04
2017-08-31T02:43:16.236Z,16.00
2017-08-31T02:45:43.934Z,15.89
2017-08-31T02:48:11.673Z,15.87
2017-08-31T02:50:39.459Z,15.83
2017-08-31T02:53:07.175Z,15.78
2017-08-31T02:55:34.954Z,15.86
2017-08-31T02:58:02.663Z,15.66
2017-08-31T03:00:30.438Z,15.67
2017-08-31T03:02:58.215Z,15.64
2017-08-31T03:05:25.961Z,15.60
2017-08-31T03:07:54.363Z,15.72
2017-08-31T03:10:22.060Z,15.72
2017-08-31T03:12:49.834Z,15.56
2017-08-31T03:15:17.583Z,15.60
2017-08-31T03:17:45.339Z,15.69
2017-08-31T03:20:13.137Z,15.56
2017-08-31T03:22:41.108Z,15.48
2017-08-31T03:25:08.842Z,15.44
2017-08-31T03:27:36.552Z,15.43
2017-08-31T03:30:04.390Z,15.44
2017-08-31T03:32:32.138Z,15.29
2017-08-31T03:34:59.896Z,15.39
2017-08-31T03:37:27.604Z,15.45
2017-08-31T03:39:55.386Z,15.40
2017-08-31T03:42:23.124Z,15.36
2017-08-31T03:44:50.917Z,15.33
2017-08-31T03:47:18.728Z,15.41
2017-08-31T03:49:46.481Z,15.17
2017-08-31T03:52:14.332Z,15.17
2017-08-31T03:54:42.032Z,15.29
2017-08-31T03:57:09.793Z,15.29
2017-08-31T03:59:37.592Z,15.26
2017-08-31T04:02:05.470Z,15.32
2017-08-31T04:04:33.216Z,15.35
2017-08-31T04:07:00.907Z,15.22
2017-08-31T04:09:28.602Z,15.28
2017-08-31T04:11:56.407Z,15.35
2017-08-31T04:14:24.125Z,15.39
2017-08-31T04:16:51.874Z,15.41
2017-08-31T04:19:19.568Z,15.38
2017-08-31T04:21:47.321Z,15.31
2017-08-31T04:24:15.054Z,15.10
2017-08-31T04:26:42.773Z,15.27
2017-08-31T04:29:10.547Z,15.27
2017-08-31T04:31:38.346Z,15.24
2017-08-31T04:34:06.107Z,15.29
2017-08-31T04:36:33.804Z,15.32
2017-08-31T04:39:01.780Z,15.30
2017-08-31T04:41:29.996Z,15.13
2017-08-31T04:43:57.724Z,15.13
2017-08-31T04:46:25.569Z,15.28
2017-08-31T04:48:53.394Z,15.35
2017-08-31T04:51:21.249Z,15.37
2017-08-31T04:53:49.015Z,15.38
2017-08-31T04:56:16.726Z,15.42
2017-08-31T04:58:44.530Z,15.48
2017-08-31T05:01:12.355Z,15.57
2017-08-31T05:03:40.149Z,15.59
2017-08-31T05:06:07.929Z,15.64
2017-08-31T05:08:35.759Z,15.72
2017-08-31T05:11:03.538Z,15.72
2017-08-31T05:13:31.294Z,16.25
2017-08-31T05:15:59.169Z,17.83
2017-08-31T05:18:26.947Z,18.91
2017-08-31T05:20:54.803Z,19.90
2017-08-31T05:23:22.599Z,20.60
2017-08-31T05:25:50.431Z,19.73
2017-08-31T05:28:18.286Z,18.77
2017-08-31T05:30:46.097Z,18.21
2017-08-31T05:33:15.014Z,17.92
2017-08-31T05:35:42.891Z,17.78
2017-08-31T05:38:10.737Z,17.59
2017-08-31T05:40:38.560Z,17.89
2017-08-31T05:43:06.508Z,17.98
2017-08-31T05:45:34.460Z,17.89
2017-08-31T05:48:02.318Z,18.09
2017-08-31T05:50:35.313Z,18.24
2017-08-31T05:53:03.162Z,18.16
2017-08-31T05:55:30.979Z,18.05
2017-08-31T05:57:58.809Z,18.34
2017-08-31T06:00:26.725Z,18.48
2017-08-31T06:02:54.608Z,18.69
2017-08-31T06:05:22.438Z,18.59
2017-08-31T06:07:50.259Z,18.91
2017-08-31T06:10:18.098Z,18.97
2017-08-31T06:12:45.843Z,19.08
2017-08-31T06:15:13.696Z,18.86
2017-08-31T06:17:41.465Z,18.41
2017-08-31T06:20:09.376Z,18.49
2017-08-31T06:22:37.088Z,18.48
2017-08-31T06:25:04.968Z,18.93
2017-08-31T06:27:32.736Z,18.99
2017-08-31T06:30:00.438Z,19.31
2017-08-31T06:32:28.238Z,19.47
2017-08-31T06:34:56.028Z,19.84
2017-08-31T06:37:23.748Z,19.85
2017-08-31T06:39:51.527Z,19.79
2017-08-31T06:42:19.274Z,20.17
2017-08-31T06:44:46.973Z,20.32
2017-08-31T06:47:14.744Z,20.40
2017-08-31T06:49:42.461Z,20.31
2017-08-31T06:52:10.184Z,20.73
2017-08-31T06:54:37.948Z,20.95
2017-08-31T06:57:05.664Z,20.84
2017-08-31T06:59:33.418Z,20.93
2017-08-31T07:02:01.117Z,20.94
2017-08-31T07:04:28.814Z,20.57
2017-08-31T07:06:57.708Z,20.61
2017-08-31T07:09:25.479Z,20.71
2017-08-31T07:11:53.304Z,20.64
2017-08-31T07:14:21.056Z,20.99
2017-08-31T07:16:48.838Z,21.40
2017-08-31T07:19:16.618Z,21.11
2017-08-31T07:21:44.383Z,21.34
2017-08-31T07:24:12.107Z,21.75
2017-08-31T07:26:39.911Z,21.14
2017-08-31T07:29:07.718Z,21.14
2017-08-31T07:31:35.401Z,21.22
2017-08-31T07:34:03.511Z,21.28
2017-08-31T07:36:31.219Z,20.94
2017-08-31T07:38:59.002Z,21.52
2017-08-31T07:41:26.889Z,22.09
2017-08-31T07:43:54.593Z,22.05
2017-08-31T07:46:22.434Z,22.01
2017-08-31T07:48:50.169Z,22.41
2017-08-31T07:51:17.933Z,22.17
2017-08-31T07:53:45.703Z,22.44
2017-08-31T07:56:13.470Z,22.98
2017-08-31T07:58:41.286Z,23.00
2017-08-31T08:01:08.986Z,23.06
2017-08-31T08:03:36.804Z,22.87
2017-08-31T08:06:04.571Z,23.03
2017-08-31T08:08:32.290Z,23.28
2017-08-31T08:11:00.068Z,23.22
2017-08-31T08:13:27.771Z,23.01
2017-08-31T08:15:55.976Z,23.22
2017-08-31T08:18:23.736Z,23.53
2017-08-31T08:20:51.450Z,23.51
2017-08-31T08:23:19.229Z,23.64
2017-08-31T08:25:47.017Z,23.93
2017-08-31T08:28:14.774Z,24.28
2017-08-31T08:30:42.572Z,24.58
2017-08-31T08:33:10.270Z,24.52
2017-08-31T08:35:37.997Z,24.74
2017-08-31T08:38:05.858Z,24.74
2017-08-31T08:40:33.611Z,25.09
2017-08-31T08:43:01.379Z,24.91
2017-08-31T08:45:29.183Z,24.87
2017-08-31T08:47:57.007Z,24.75
2017-08-31T08:50:24.808Z,24.71
2017-08-31T08:52:52.612Z,24.56
2017-08-31T08:55:20.353Z,25.22
2017-08-31T08:57:48.142Z,25.19
2017-08-31T09:00:15.958Z,25.36
2017-08-31T09:02:43.661Z,24.55
2017-08-31T09:05:11.446Z,25.49
2017-08-31T09:07:39.193Z,25.86
2017-08-31T09:10:06.888Z,25.88
2017-08-31T09:12:34.663Z,25.87
2017-08-31T09:15:02.491Z,26.02
2017-08-31T09:17:30.172Z,25.82
2017-08-31T09:19:57.981Z,25.85
2017-08-31T09:22:25.789Z,26.30
2017-08-31T09:24:53.966Z,26.40
2017-08-31T09:27:21.814Z,26.73
2017-08-31T09:29:49.630Z,26.26
2017-08-31T09:32:17.367Z,26.73
2017-08-31T09:34:45.205Z,26.68
2017-08-31T09:37:12.981Z,26.67
2017-08-31T09:39:40.749Z,26.77
2017-08-31T09:42:08.496Z,26.74
2017-08-31T09:44:36.171Z,27.00
2017-08-31T09:47:03.960Z,27.38
2017-08-31T09:49:31.792Z,27.74
2017-08-31T09:51:59.506Z,28.19
2017-08-31T09:54:27.393Z,28.15
2017-08-31T09:56:55.347Z,28.23
2017-08-31T09:59:23.961Z,27.72
2017-08-31T10:01:51.676Z,28.16
2017-08-31T10:04:19.501Z,28.08
2017-08-31T10:06:47.264Z,27.99
2017-08-31T10:09:15.063Z,27.43
2017-08-31T10:11:42.787Z,27.90
2017-08-31T10:14:10.686Z,27.97
2017-08-31T10:16:38.480Z,28.14
2017-08-31T10:19:06.256Z,28.09
2017-08-31T10:21:33.973Z,28.14
2017-08-31T10:24:01.827Z,28.32
2017-08-31T10:26:29.599Z,28.80
2017-08-31T10:28:57.375Z,28.97
2017-08-31T10:31:25.279Z,28.89
2017-08-31T10:33:53.129Z,28.71
2017-08-31T10:36:20.942Z,29.14
2017-08-31T10:38:48.912Z,29.18
2017-08-31T10:41:16.737Z,29.32
2017-08-31T10:43:44.634Z,29.40
2017-08-31T10:46:12.375Z,29.22
2017-08-31T10:48:40.324Z,29.44
2017-08-31T10:51:08.154Z,30.07
2017-08-31T10:53:35.983Z,29.63
2017-08-31T10:56:03.973Z,29.09
2017-08-31T10:58:31.977Z,29.35
2017-08-31T11:00:59.855Z,29.69
2017-08-31T11:03:27.730Z,29.95
2017-08-31T11:05:55.501Z,30.13
2017-08-31T11:08:23.435Z,29.74
2017-08-31T11:10:51.249Z,29.31
2017-08-31T11:13:19.147Z,29.29
2017-08-31T11:15:46.954Z,29.94
2017-08-31T11:18:14.807Z,30.27
2017-08-31T11:20:42.632Z,30.22
2017-08-31T11:23:10.486Z,29.84
2017-08-31T11:25:38.332Z,30.38
2017-08-31T11:28:06.229Z,29.97
2017-08-31T11:30:34.141Z,29.91
2017-08-31T11:33:02.003Z,30.25
2017-08-31T11:35:29.857Z,30.59
2017-08-31T11:37:57.827Z,30.48
2017-08-31T11:40:25.606Z,30.46
2017-08-31T11:42:53.299Z,30.71
2017-08-31T11:45:21.099Z,30.92
2017-08-31T11:47:48.862Z,30.67
2017-08-31T11:50:16.601Z,30.72
2017-08-31T11:52:44.430Z,30.95
2017-08-31T11:55:12.256Z,31.18
2017-08-31T11:57:40.045Z,31.13
2017-08-31T12:00:07.815Z,31.01
2017-08-31T12:02:35.562Z,30.62
2017-08-31T12:05:04.282Z,30.98
2017-08-31T12:07:33.135Z,31.48
2017-08-31T12:10:01.150Z,31.83
2017-08-31T12:12:29.358Z,31.79
2017-08-31T12:14:57.121Z,31.75
2017-08-31T12:17:25.872Z,31.77
2017-08-31T12:19:54.353Z,31.55
2017-08-31T12:22:22.070Z,31.58
2017-08-31T12:24:49.837Z,31.63
2017-08-31T12:27:17.573Z,31.65
2017-08-31T12:29:45.405Z,31.73
2017-08-31T12:32:15.411Z,32.00
2017-08-31T12:34:43.100Z,31.70
2017-08-31T12:37:12.051Z,31.71
2017-08-31T12:39:39.801Z,31.78
2017-08-31T12:42:07.671Z,31.96
2017-08-31T12:44:36.573Z,31.99
2017-08-31T12:47:04.352Z,31.38
2017-08-31T12:49:32.153Z,31.49
2017-08-31T12:51:59.910Z,31.60
2017-08-31T12:54:27.688Z,31.61
2017-08-31T12:56:55.473Z,31.58
2017-08-31T12:59:24.186Z,31.79
2017-08-31T13:01:52.275Z,31.71
2017-08-31T13:04:20.003Z,31.82
2017-08-31T13:06:47.837Z,31.36
2017-08-31T13:09:15.617Z,31.61
2017-08-31T13:11:43.472Z,31.82
2017-08-31T13:14:11.182Z,32.16
2017-08-31T13:16:38.974Z,32.12
2017-08-31T13:19:06.668Z,31.62
2017-08-31T13:21:34.430Z,31.80
2017-08-31T13:24:02.204Z,32.00
2017-08-31T13:26:29.955Z,31.86
2017-08-31T13:28:57.836Z,31.77
2017-08-31T13:31:25.610Z,31.97
2017-08-31T13:33:53.599Z,32.01
2017-08-31T13:36:21.347Z,31.87
2017-08-31T13:38:49.101Z,31.70
2017-08-31T13:41:17.298Z,32.05
2017-08-31T13:43:45.059Z,31.83
2017-08-31T13:46:13.141Z,31.75
2017-08-31T13:48:40.896Z,31.14
2017-08-31T13:51:08.667Z,30.90
2017-08-31T13:53:36.388Z,30.20
2017-08-31T13:56:04.181Z,30.30
2017-08-31T13:58:31.972Z,30.11
2017-08-31T14:00:59.918Z,29.82
2017-08-31T14:03:27.878Z,29.75
2017-08-31T14:05:55.585Z,29.58
2017-08-31T14:08:23.346Z,29.38
2017-08-31T14:10:51.224Z,28.99
2017-08-31T14:13:18.990Z,28.87
2017-08-31T14:15:46.787Z,28.85
2017-08-31T14:18:14.492Z,28.77
2017-08-31T14:20:43.219Z,28.33
2017-08-31T14:23:10.971Z,28.03
2017-08-31T14:25:39.862Z,27.72
2017-08-31T14:28:07.603Z,27.55
2017-08-31T14:30:36.390Z,27.17
2017-08-31T14:33:04.164Z,26.91
2017-08-31T14:35:32.135Z,26.75
2017-08-31T14:37:59.897Z,26.71
2017-08-31T14:40:28.492Z,26.56
2017-08-31T14:42:56.277Z,26.17
2017-08-31T14:45:24.125Z,25.80
2017-08-31T14:47:51.891Z,25.68
2017-08-31T14:50:19.763Z,25.42
2017-08-31T14:52:47.777Z,25.28
2017-08-31T14:55:15.574Z,25.00
2017-08-31T14:57:43.398Z,24.93
2017-08-31T15:00:11.190Z,24.23
2017-08-31T15:02:38.931Z,24.11
2017-08-31T15:05:06.720Z,24.13
2017-08-31T15:07:34.405Z,23.89
2017-08-31T15:10:02.242Z,24.24
2017-08-31T15:12:29.987Z,23.83
2017-08-31T15:14:57.779Z,23.50
2017-08-31T15:17:26.554Z,23.24
2017-08-31T15:19:56.690Z,23.52
2017-08-31T15:22:24.557Z,23.64
2017-08-31T15:24:52.330Z,23.81
2017-08-31T15:27:20.173Z,23.73
2017-08-31T15:29:48.082Z,23.64
2017-08-31T15:32:15.822Z,23.63
2017-08-31T15:34:44.273Z,23.57
2017-08-31T15:37:12.750Z,23.65
2017-08-31T15:39:40.471Z,23.75
2017-08-31T15:42:08.249Z,23.47
2017-08-31T15:44:35.976Z,23.49
2017-08-31T15:47:03.721Z,23.58
2017-08-31T15:49:31.477Z,23.61
2017-08-31T15:51:59.278Z,23.37
2017-08-31T15:54:27.041Z,23.23
2017-08-31T15:56:54.710Z,23.25
2017-08-31T15:59:22.477Z,23.45
2017-08-31T16:01:50.265Z,23.22
2017-08-31T16:04:18.114Z,23.05
2017-08-31T16:06:45.949Z,23.32
2017-08-31T16:09:13.762Z,23.21
2017-08-31T16:11:41.527Z,23.14
2017-08-31T16:14:09.478Z,23.06
2017-08-31T16:16:37.281Z,23.04
2017-08-31T16:19:05.033Z,22.86
2017-08-31T16:21:32.894Z,22.78
2017-08-31T16:24:00.679Z,22.77
2017-08-31T16:26:28.426Z,22.67
2017-08-31T16:28:56.135Z,22.52
2017-08-31T16:31:23.932Z,22.30
2017-08-31T16:33:52.986Z,22.41
2017-08-31T16:36:20.712Z,22.51
2017-08-31T16:38:48.559Z,22.56
2017-08-31T16:41:16.301Z,22.18
2017-08-31T16:43:44.033Z,21.93
2017-08-31T16:46:12.638Z,21.98
2017-08-31T16:48:40.381Z,22.03
2017-08-31T16:51:08.446Z,22.01
2017-08-31T16:53:36.202Z,22.16
2017-08-31T16:56:04.140Z,22.19
2017-08-31T16:58:31.855Z,22.26
2017-08-31T17:00:59.716Z,22.26
2017-08-31T17:03:27.644Z,22.11
2017-08-31T17:05:56.166Z,22.01
2017-08-31T17:08:23.964Z,22.03
2017-08-31T17:10:51.687Z,21.97
2017-08-31T17:13:19.431Z,21.73
2017-08-31T17:15:47.965Z,21.65
2017-08-31T17:18:15.740Z,21.57
2017-08-31T17:20:43.455Z,21.72
2017-08-31T17:23:11.309Z,21.62
2017-08-31T17:25:39.164Z,21.63
2017-08-31T17:28:06.897Z,21.68
2017-08-31T17:30:34.662Z,21.50
2017-08-31T17:33:03.534Z,21.52
2017-08-31T17:35:31.377Z,21.54
2017-08-31T17:37:59.091Z,21.41
2017-08-31T17:40:26.835Z,21.23
2017-08-31T17:42:54.614Z,21.29
2017-08-31T17:45:22.606Z,21.47
2017-08-31T17:47:50.307Z,21.03
2017-08-31T17:50:18.144Z,20.82
2017-08-31T17:52:45.914Z,20.65
2017-08-31T17:55:13.689Z,20.77
2017-08-31T17:57:41.441Z,20.72
2017-08-31T18:00:09.213Z,20.55
2017-08-31T18:02:37.290Z,20.78
2017-08-31T18:05:05.581Z,20.86
2017-08-31T18:07:33.386Z,20.90
2017-08-31T18:10:01.164Z,20.99
2017-08-31T18:12:30.076Z,20.96
2017-08-31T18:14:58.056Z,21.01
2017-08-31T18:17:25.879Z,20.84
2017-08-31T18:19:53.612Z,20.77
2017-08-31T18:22:21.766Z,20.74
2017-08-31T18:24:49.640Z,20.80
2017-08-31T18:27:17.603Z,20.95
2017-08-31T18:29:45.380Z,20.75
2017-08-31T18:32:13.843Z,20.73
2017-08-31T18:34:41.628Z,20.90
2017-08-31T18:37:09.819Z,20.93
2017-08-31T18:39:38.229Z,20.84
2017-08-31T18:42:06.637Z,20.60
2017-08-31T18:44:35.783Z,20.49
2017-08-31T18:47:03.583Z,20.62
2017-08-31T18:49:31.562Z,20.73
2017-08-31T18:52:01.416Z,20.51
2017-08-31T18:54:30.213Z,20.39
2017-08-31T18:56:58.224Z,20.48
2017-08-31T18:59:27.091Z,20.49
2017-08-31T19:01:56.213Z,20.44
2017-08-31T19:04:24.714Z,20.35
2017-08-31T19:06:52.801Z,20.13
2017-08-31T19:09:21.562Z,20.03
2017-08-31T19:11:49.597Z,20.01
2017-08-31T19:14:17.379Z,20.19
2017-08-31T19:16:45.259Z,20.27
2017-08-31T19:19:13.059Z,20.19
2017-08-31T19:21:41.126Z,20.10
2017-08-31T19:24:08.882Z,20.02
2017-08-31T19:26:36.832Z,19.92
2017-08-31T19:29:04.726Z,20.13
2017-08-31T19:31:32.601Z,20.01
2017-08-31T19:34:00.401Z,19.89
2017-08-31T19:36:28.329Z,19.72
2017-08-31T19:38:57.361Z,19.67
2017-08-31T19:41:25.211Z,19.70
2017-08-31T19:43:53.058Z,19.56
2017-08-31T19:46:20.997Z,19.53
2017-08-31T19:48:49.216Z,19.35
2017-08-31T19:51:17.053Z,19.44
2017-08-31T19:53:44.869Z,19.39
2017-08-31T19:56:12.660Z,19.41
2017-08-31T19:58:40.472Z,19.18
2017-08-31T20:01:08.314Z,19.10
2017-08-31T20:03:36.031Z,19.33
2017-08-31T20:06:03.826Z,19.45
2017-08-31T20:08:31.648Z,19.19
2017-08-31T20:10:59.458Z,19.00
2017-08-31T20:13:27.246Z,19.01
2017-08-31T20:15:55.020Z,19.17
2017-08-31T20:18:22.776Z,19.23
2017-08-31T20:48:16.796Z,19.24
2017-08-31T20:50:44.521Z,19.14
2017-08-31T20:53:12.331Z,19.05
2017-08-31T20:55:40.914Z,19.06
2017-08-31T21:05:02.509Z,19.22
2017-08-31T21:07:30.239Z,19.17
2017-08-31T21:09:58.058Z,19.21
2017-08-31T21:12:25.881Z,19.12
2017-08-31T21:14:53.697Z,19.02
2017-08-31T21:17:21.462Z,18.80
2017-08-31T21:19:49.170Z,18.94
2017-08-31T21:22:16.960Z,18.96
2017-08-31T21:24:44.670Z,19.01
2017-08-31T21:27:12.458Z,19.07
2017-08-31T21:29:40.200Z,19.05
2017-08-31T21:45:00.487Z,19.07
2017-08-31T21:47:28.187Z,18.97
2017-08-31T21:49:55.889Z,19.02
2017-08-31T21:52:23.669Z,18.92
2017-08-31T21:54:51.357Z,19.03
2017-08-31T21:57:19.058Z,19.08
2017-08-31T21:59:46.801Z,18.95
2017-08-31T22:02:14.581Z,18.88
2017-08-31T22:04:42.302Z,18.72
2017-08-31T22:07:10.052Z,18.79
2017-08-31T22:09:37.785Z,18.82
2017-08-31T22:25:05.323Z,19.03
2017-08-31T22:35:02.385Z,18.83
2017-08-31T22:37:30.109Z,18.97
2017-08-31T22:39:58.677Z,18.95
2017-08-31T22:45:10.264Z,18.90
2017-08-31T22:47:38.010Z,18.94
2017-08-31T22:50:05.735Z,18.81
2017-08-31T23:05:04.101Z,18.83
2017-08-31T23:07:31.798Z,18.84
2017-08-31T23:09:59.538Z,18.92
2017-08-31T23:12:27.359Z,18.95
2017-08-31T23:14:55.086Z,18.84
2017-08-31T23:17:22.861Z,18.80
2017-08-31T23:25:02.290Z,18.79
2017-08-31T23:27:30.720Z,18.74
2017-08-31T23:29:58.427Z,18.76
2017-08-31T23:32:26.191Z,18.76
2017-08-31T23:34:53.881Z,18.79
2017-08-31T23:37:22.086Z,18.86
2017-08-31T23:39:49.806Z,18.81
2017-08-31T23:42:17.581Z,18.79
2017-08-31T23:55:03.125Z,18.68
2017-08-31T23:57:31.086Z,18.56
2017-08-31T23:59:58.781Z,18.61
